sensor_id;sensor_type;location;lat;lon;timestamp;P1;durP1;ratioP1;P2;durP2;ratioP2
75283;SDS011;63877;48.702;44.594;2022-10-16T00:00:44;0.30;;;0.30;;
75283;SDS011;63877;48.702;44.594;2022-10-16T00:03:11;0.35;;;0.32;;
75283;SDS011;63877;48.702;44.594;2022-10-16T00:05:38;0.63;;;0.50;;
75283;SDS011;63877;48.702;44.594;2022-10-16T00:08:06;0.08;;;0.00;;
75283;SDS011;63877;48.702;44.594;2022-10-16T00:10:33;1.42;;;0.70;;
75283;SDS011;63877;48.702;44.594;2022-10-16T00:12:59;0.98;;;0.80;;
75283;SDS011;63877;48.702;44.594;2022-10-16T00:15:25;0.50;;;0.50;;
75283;SDS011;63877;48.702;44.594;2022-10-16T00:17:52;1.38;;;0.60;;
75283;SDS011;63877;48.702;44.594;2022-10-16T00:20:17;1.10;;;0.30;;
75283;SDS011;63877;48.702;44.594;2022-10-16T00:22:43;0.90;;;0.52;;
75283;SDS011;63877;48.702;44.594;2022-10-16T00:25:09;0.93;;;0.75;;
75283;SDS011;63877;48.702;44.594;2022-10-16T00:27:35;0.88;;;0.85;;
75283;SDS011;63877;48.702;44.594;2022-10-16T00:30:01;0.90;;;0.45;;
75283;SDS011;63877;48.702;44.594;2022-10-16T00:32:28;0.20;;;0.20;;
75283;SDS011;63877;48.702;44.594;2022-10-16T00:34:55;0.25;;;0.20;;
75283;SDS011;63877;48.702;44.594;2022-10-16T00:37:20;0.63;;;0.43;;
75283;SDS011;63877;48.702;44.594;2022-10-16T00:39:46;4.13;;;1.95;;
75283;SDS011;63877;48.702;44.594;2022-10-16T00:42:16;0.85;;;0.50;;
75283;SDS011;63877;48.702;44.594;2022-10-16T00:49:56;2.63;;;0.80;;
75283;SDS011;63877;48.702;44.594;2022-10-16T00:52:27;1.27;;;1.05;;
75283;SDS011;63877;48.702;44.594;2022-10-16T00:54:53;1.33;;;0.70;;
75283;SDS011;63877;48.702;44.594;2022-10-16T00:57:20;0.57;;;0.57;;
75283;SDS011;63877;48.702;44.594;2022-10-16T00:59:46;0.10;;;0.10;;
75283;SDS011;63877;48.702;44.594;2022-10-16T01:02:13;2.28;;;0.60;;
75283;SDS011;63877;48.702;44.594;2022-10-16T01:04:45;2.25;;;1.65;;
75283;SDS011;63877;48.702;44.594;2022-10-16T01:10:09;0.43;;;0.43;;
75283;SDS011;63877;48.702;44.594;2022-10-16T01:12:45;0.45;;;0.32;;
75283;SDS011;63877;48.702;44.594;2022-10-16T01:15:41;1.33;;;1.23;;
75283;SDS011;63877;48.702;44.594;2022-10-16T01:18:32;1.13;;;0.50;;
75283;SDS011;63877;48.702;44.594;2022-10-16T01:21:04;0.57;;;0.57;;
75283;SDS011;63877;48.702;44.594;2022-10-16T01:24:06;0.63;;;0.63;;
75283;SDS011;63877;48.702;44.594;2022-10-16T01:29:36;13.27;;;1.00;;
75283;SDS011;63877;48.702;44.594;2022-10-16T01:32:15;3.55;;;0.98;;
75283;SDS011;63877;48.702;44.594;2022-10-16T01:35:44;0.75;;;0.63;;
75283;SDS011;63877;48.702;44.594;2022-10-16T01:40:24;1.73;;;1.17;;
75283;SDS011;63877;48.702;44.594;2022-10-16T01:42:53;0.35;;;0.22;;
75283;SDS011;63877;48.702;44.594;2022-10-16T01:45:24;2.25;;;1.58;;
75283;SDS011;63877;48.702;44.594;2022-10-16T01:47:50;1.60;;;1.50;;
75283;SDS011;63877;48.702;44.594;2022-10-16T01:50:18;2.35;;;0.70;;
75283;SDS011;63877;48.702;44.594;2022-10-16T01:52:46;1.23;;;1.13;;
75283;SDS011;63877;48.702;44.594;2022-10-16T01:55:17;1.63;;;1.15;;
75283;SDS011;63877;48.702;44.594;2022-10-16T01:57:48;0.38;;;0.38;;
75283;SDS011;63877;48.702;44.594;2022-10-16T02:00:17;0.88;;;0.63;;
75283;SDS011;63877;48.702;44.594;2022-10-16T02:02:46;0.77;;;0.77;;
75283;SDS011;63877;48.702;44.594;2022-10-16T02:07:49;4.25;;;2.05;;
75283;SDS011;63877;48.702;44.594;2022-10-16T02:10:15;4.35;;;2.22;;
75283;SDS011;63877;48.702;44.594;2022-10-16T02:12:43;1.08;;;1.00;;
75283;SDS011;63877;48.702;44.594;2022-10-16T02:15:16;0.38;;;0.20;;
75283;SDS011;63877;48.702;44.594;2022-10-16T02:17:42;2.03;;;0.70;;
75283;SDS011;63877;48.702;44.594;2022-10-16T02:20:08;2.03;;;1.27;;
75283;SDS011;63877;48.702;44.594;2022-10-16T02:22:39;0.20;;;0.20;;
75283;SDS011;63877;48.702;44.594;2022-10-16T02:25:22;0.70;;;0.52;;
75283;SDS011;63877;48.702;44.594;2022-10-16T02:31:01;6.22;;;1.73;;
75283;SDS011;63877;48.702;44.594;2022-10-16T02:33:31;29.75;;;2.95;;
75283;SDS011;63877;48.702;44.594;2022-10-16T02:35:59;2.17;;;1.80;;
75283;SDS011;63877;48.702;44.594;2022-10-16T02:38:25;1.30;;;1.13;;
75283;SDS011;63877;48.702;44.594;2022-10-16T02:40:52;4.55;;;3.00;;
75283;SDS011;63877;48.702;44.594;2022-10-16T02:43:18;7.57;;;1.60;;
75283;SDS011;63877;48.702;44.594;2022-10-16T02:45:45;0.40;;;0.28;;
75283;SDS011;63877;48.702;44.594;2022-10-16T02:48:11;1.35;;;1.25;;
75283;SDS011;63877;48.702;44.594;2022-10-16T02:50:36;1.73;;;0.93;;
75283;SDS011;63877;48.702;44.594;2022-10-16T02:53:02;1.75;;;0.77;;
75283;SDS011;63877;48.702;44.594;2022-10-16T02:55:28;3.63;;;1.95;;
75283;SDS011;63877;48.702;44.594;2022-10-16T02:57:54;3.95;;;1.38;;
75283;SDS011;63877;48.702;44.594;2022-10-16T03:00:20;1.60;;;0.90;;
75283;SDS011;63877;48.702;44.594;2022-10-16T03:02:46;1.73;;;0.90;;
75283;SDS011;63877;48.702;44.594;2022-10-16T03:05:12;1.40;;;1.30;;
75283;SDS011;63877;48.702;44.594;2022-10-16T03:07:39;1.15;;;1.10;;
75283;SDS011;63877;48.702;44.594;2022-10-16T03:10:05;1.08;;;0.80;;
75283;SDS011;63877;48.702;44.594;2022-10-16T03:12:31;1.38;;;1.27;;
75283;SDS011;63877;48.702;44.594;2022-10-16T03:14:57;1.70;;;0.60;;
75283;SDS011;63877;48.702;44.594;2022-10-16T03:17:24;1.30;;;1.10;;
75283;SDS011;63877;48.702;44.594;2022-10-16T03:19:50;1.67;;;1.58;;
75283;SDS011;63877;48.702;44.594;2022-10-16T03:22:16;2.78;;;0.95;;
75283;SDS011;63877;48.702;44.594;2022-10-16T03:24:42;3.10;;;1.38;;
75283;SDS011;63877;48.702;44.594;2022-10-16T03:27:08;2.10;;;1.55;;
75283;SDS011;63877;48.702;44.594;2022-10-16T03:29:34;0.93;;;0.90;;
75283;SDS011;63877;48.702;44.594;2022-10-16T03:32:00;3.42;;;1.55;;
75283;SDS011;63877;48.702;44.594;2022-10-16T03:34:26;2.38;;;1.63;;
75283;SDS011;63877;48.702;44.594;2022-10-16T03:36:53;0.98;;;0.75;;
75283;SDS011;63877;48.702;44.594;2022-10-16T03:39:19;2.15;;;1.95;;
75283;SDS011;63877;48.702;44.594;2022-10-16T03:41:45;1.50;;;1.40;;
75283;SDS011;63877;48.702;44.594;2022-10-16T03:44:14;0.90;;;0.80;;
75283;SDS011;63877;48.702;44.594;2022-10-16T03:46:41;2.05;;;1.95;;
75283;SDS011;63877;48.702;44.594;2022-10-16T03:49:07;14.13;;;1.60;;
75283;SDS011;63877;48.702;44.594;2022-10-16T03:51:33;1.02;;;0.93;;
75283;SDS011;63877;48.702;44.594;2022-10-16T03:53:58;0.50;;;0.43;;
75283;SDS011;63877;48.702;44.594;2022-10-16T03:56:25;2.90;;;1.30;;
75283;SDS011;63877;48.702;44.594;2022-10-16T03:58:50;0.47;;;0.40;;
75283;SDS011;63877;48.702;44.594;2022-10-16T04:01:16;1.45;;;1.35;;
75283;SDS011;63877;48.702;44.594;2022-10-16T04:03:42;0.98;;;0.98;;
75283;SDS011;63877;48.702;44.594;2022-10-16T04:06:08;1.50;;;0.75;;
75283;SDS011;63877;48.702;44.594;2022-10-16T04:08:34;0.98;;;0.75;;
75283;SDS011;63877;48.702;44.594;2022-10-16T04:11:02;1.05;;;0.80;;
75283;SDS011;63877;48.702;44.594;2022-10-16T04:13:28;1.33;;;0.28;;
75283;SDS011;63877;48.702;44.594;2022-10-16T04:15:54;0.63;;;0.57;;
75283;SDS011;63877;48.702;44.594;2022-10-16T04:18:20;1.23;;;1.15;;
75283;SDS011;63877;48.702;44.594;2022-10-16T04:20:46;3.40;;;1.38;;
75283;SDS011;63877;48.702;44.594;2022-10-16T04:23:12;0.80;;;0.50;;
75283;SDS011;63877;48.702;44.594;2022-10-16T04:25:38;1.48;;;0.98;;
75283;SDS011;63877;48.702;44.594;2022-10-16T04:28:04;0.93;;;0.82;;
75283;SDS011;63877;48.702;44.594;2022-10-16T04:30:31;1.50;;;0.95;;
75283;SDS011;63877;48.702;44.594;2022-10-16T04:32:58;0.25;;;0.15;;
75283;SDS011;63877;48.702;44.594;2022-10-16T04:35:24;1.13;;;1.02;;
75283;SDS011;63877;48.702;44.594;2022-10-16T04:37:50;0.93;;;0.52;;
75283;SDS011;63877;48.702;44.594;2022-10-16T04:40:17;1.10;;;0.73;;
75283;SDS011;63877;48.702;44.594;2022-10-16T04:42:43;21.75;;;4.30;;
75283;SDS011;63877;48.702;44.594;2022-10-16T04:45:10;1.02;;;0.30;;
75283;SDS011;63877;48.702;44.594;2022-10-16T04:47:36;1.40;;;0.65;;
75283;SDS011;63877;48.702;44.594;2022-10-16T04:50:02;1.15;;;1.05;;
75283;SDS011;63877;48.702;44.594;2022-10-16T04:52:28;1.00;;;0.52;;
75283;SDS011;63877;48.702;44.594;2022-10-16T04:54:57;0.47;;;0.45;;
75283;SDS011;63877;48.702;44.594;2022-10-16T04:57:26;0.60;;;0.60;;
75283;SDS011;63877;48.702;44.594;2022-10-16T04:59:52;1.85;;;0.50;;
75283;SDS011;63877;48.702;44.594;2022-10-16T05:02:18;1.05;;;0.85;;
75283;SDS011;63877;48.702;44.594;2022-10-16T05:04:45;1.52;;;1.02;;
75283;SDS011;63877;48.702;44.594;2022-10-16T05:07:11;1.23;;;1.02;;
75283;SDS011;63877;48.702;44.594;2022-10-16T05:09:37;3.03;;;2.13;;
75283;SDS011;63877;48.702;44.594;2022-10-16T05:12:03;0.63;;;0.63;;
75283;SDS011;63877;48.702;44.594;2022-10-16T05:14:29;7.20;;;0.75;;
75283;SDS011;63877;48.702;44.594;2022-10-16T05:16:55;0.25;;;0.10;;
75283;SDS011;63877;48.702;44.594;2022-10-16T05:19:21;0.35;;;0.25;;
75283;SDS011;63877;48.702;44.594;2022-10-16T05:21:47;1.70;;;0.63;;
75283;SDS011;63877;48.702;44.594;2022-10-16T05:24:13;0.63;;;0.63;;
75283;SDS011;63877;48.702;44.594;2022-10-16T05:26:39;0.52;;;0.43;;
75283;SDS011;63877;48.702;44.594;2022-10-16T05:29:05;0.43;;;0.30;;
75283;SDS011;63877;48.702;44.594;2022-10-16T05:31:31;1.55;;;1.45;;
75283;SDS011;63877;48.702;44.594;2022-10-16T05:34:00;1.17;;;0.35;;
75283;SDS011;63877;48.702;44.594;2022-10-16T05:36:26;0.80;;;0.80;;
75283;SDS011;63877;48.702;44.594;2022-10-16T05:38:52;0.50;;;0.40;;
75283;SDS011;63877;48.702;44.594;2022-10-16T05:41:19;0.75;;;0.75;;
75283;SDS011;63877;48.702;44.594;2022-10-16T05:43:47;0.25;;;0.17;;
75283;SDS011;63877;48.702;44.594;2022-10-16T05:46:13;0.50;;;0.32;;
75283;SDS011;63877;48.702;44.594;2022-10-16T05:48:40;0.57;;;0.32;;
75283;SDS011;63877;48.702;44.594;2022-10-16T05:51:06;8.32;;;1.23;;
75283;SDS011;63877;48.702;44.594;2022-10-16T05:53:34;1.27;;;1.17;;
75283;SDS011;63877;48.702;44.594;2022-10-16T05:56:02;0.35;;;0.30;;
75283;SDS011;63877;48.702;44.594;2022-10-16T05:58:30;0.55;;;0.50;;
75283;SDS011;63877;48.702;44.594;2022-10-16T06:00:59;0.80;;;0.77;;
75283;SDS011;63877;48.702;44.594;2022-10-16T06:03:27;1.05;;;1.05;;
75283;SDS011;63877;48.702;44.594;2022-10-16T06:05:53;0.55;;;0.50;;
75283;SDS011;63877;48.702;44.594;2022-10-16T06:08:20;1.13;;;0.80;;
75283;SDS011;63877;48.702;44.594;2022-10-16T06:10:48;0.77;;;0.57;;
75283;SDS011;63877;48.702;44.594;2022-10-16T06:13:15;0.95;;;0.75;;
75283;SDS011;63877;48.702;44.594;2022-10-16T06:15:41;1.20;;;1.10;;
75283;SDS011;63877;48.702;44.594;2022-10-16T06:18:08;4.20;;;1.65;;
75283;SDS011;63877;48.702;44.594;2022-10-16T06:20:35;2.40;;;1.65;;
75283;SDS011;63877;48.702;44.594;2022-10-16T06:23:02;1.10;;;0.95;;
75283;SDS011;63877;48.702;44.594;2022-10-16T06:25:30;1.73;;;1.63;;
75283;SDS011;63877;48.702;44.594;2022-10-16T06:27:56;1.08;;;0.77;;
75283;SDS011;63877;48.702;44.594;2022-10-16T06:30:22;6.60;;;1.38;;
75283;SDS011;63877;48.702;44.594;2022-10-16T06:32:48;0.70;;;0.43;;
75283;SDS011;63877;48.702;44.594;2022-10-16T06:35:14;1.60;;;1.13;;
75283;SDS011;63877;48.702;44.594;2022-10-16T06:37:40;0.68;;;0.68;;
75283;SDS011;63877;48.702;44.594;2022-10-16T06:40:06;3.63;;;2.00;;
75283;SDS011;63877;48.702;44.594;2022-10-16T06:42:32;6.68;;;0.82;;
75283;SDS011;63877;48.702;44.594;2022-10-16T06:44:58;1.27;;;0.63;;
75283;SDS011;63877;48.702;44.594;2022-10-16T06:47:24;1.05;;;0.95;;
75283;SDS011;63877;48.702;44.594;2022-10-16T06:49:50;3.63;;;1.30;;
75283;SDS011;63877;48.702;44.594;2022-10-16T06:52:16;7.15;;;0.82;;
75283;SDS011;63877;48.702;44.594;2022-10-16T06:54:42;1.63;;;1.15;;
75283;SDS011;63877;48.702;44.594;2022-10-16T06:57:08;7.32;;;0.95;;
75283;SDS011;63877;48.702;44.594;2022-10-16T06:59:34;3.28;;;1.67;;
75283;SDS011;63877;48.702;44.594;2022-10-16T07:02:00;0.57;;;0.30;;
75283;SDS011;63877;48.702;44.594;2022-10-16T07:04:26;1.38;;;0.80;;
75283;SDS011;63877;48.702;44.594;2022-10-16T07:06:52;0.40;;;0.10;;
75283;SDS011;63877;48.702;44.594;2022-10-16T07:09:17;4.68;;;1.75;;
75283;SDS011;63877;48.702;44.594;2022-10-16T07:11:43;0.82;;;0.55;;
75283;SDS011;63877;48.702;44.594;2022-10-16T07:14:14;3.03;;;1.42;;
75283;SDS011;63877;48.702;44.594;2022-10-16T07:16:42;1.67;;;0.52;;
75283;SDS011;63877;48.702;44.594;2022-10-16T07:19:08;3.08;;;1.52;;
75283;SDS011;63877;48.702;44.594;2022-10-16T07:21:37;2.63;;;1.15;;
75283;SDS011;63877;48.702;44.594;2022-10-16T07:24:07;0.98;;;0.70;;
75283;SDS011;63877;48.702;44.594;2022-10-16T07:26:38;0.60;;;0.60;;
75283;SDS011;63877;48.702;44.594;2022-10-16T07:29:15;0.45;;;0.28;;
75283;SDS011;63877;48.702;44.594;2022-10-16T07:31:43;1.77;;;0.90;;
75283;SDS011;63877;48.702;44.594;2022-10-16T07:34:09;2.30;;;1.65;;
75283;SDS011;63877;48.702;44.594;2022-10-16T07:36:40;1.15;;;0.68;;
75283;SDS011;63877;48.702;44.594;2022-10-16T07:39:05;1.77;;;0.70;;
75283;SDS011;63877;48.702;44.594;2022-10-16T07:41:32;1.42;;;1.10;;
75283;SDS011;63877;48.702;44.594;2022-10-16T07:44:01;4.55;;;1.15;;
75283;SDS011;63877;48.702;44.594;2022-10-16T07:46:29;2.08;;;1.05;;
75283;SDS011;63877;48.702;44.594;2022-10-16T07:48:55;2.25;;;1.33;;
75283;SDS011;63877;48.702;44.594;2022-10-16T07:51:22;1.25;;;0.75;;
75283;SDS011;63877;48.702;44.594;2022-10-16T07:53:50;1.60;;;1.35;;
75283;SDS011;63877;48.702;44.594;2022-10-16T07:56:17;0.80;;;0.70;;
75283;SDS011;63877;48.702;44.594;2022-10-16T07:58:44;5.55;;;1.23;;
75283;SDS011;63877;48.702;44.594;2022-10-16T08:01:11;2.78;;;1.75;;
75283;SDS011;63877;48.702;44.594;2022-10-16T08:03:43;1.75;;;1.15;;
75283;SDS011;63877;48.702;44.594;2022-10-16T08:06:09;1.92;;;1.13;;
75283;SDS011;63877;48.702;44.594;2022-10-16T08:08:35;2.53;;;1.80;;
75283;SDS011;63877;48.702;44.594;2022-10-16T08:11:01;2.42;;;1.83;;
75283;SDS011;63877;48.702;44.594;2022-10-16T08:13:29;3.95;;;1.98;;
75283;SDS011;63877;48.702;44.594;2022-10-16T08:15:56;3.50;;;1.85;;
75283;SDS011;63877;48.702;44.594;2022-10-16T08:18:22;1.67;;;1.58;;
75283;SDS011;63877;48.702;44.594;2022-10-16T08:20:54;1.88;;;1.40;;
75283;SDS011;63877;48.702;44.594;2022-10-16T08:23:24;4.80;;;1.55;;
75283;SDS011;63877;48.702;44.594;2022-10-16T08:25:51;2.33;;;1.30;;
75283;SDS011;63877;48.702;44.594;2022-10-16T08:28:21;2.03;;;1.65;;
75283;SDS011;63877;48.702;44.594;2022-10-16T08:30:48;1.35;;;0.77;;
75283;SDS011;63877;48.702;44.594;2022-10-16T08:33:14;2.10;;;1.10;;
75283;SDS011;63877;48.702;44.594;2022-10-16T08:35:40;2.75;;;1.60;;
75283;SDS011;63877;48.702;44.594;2022-10-16T08:38:06;1.83;;;1.38;;
75283;SDS011;63877;48.702;44.594;2022-10-16T08:40:33;2.72;;;1.95;;
75283;SDS011;63877;48.702;44.594;2022-10-16T08:51:01;1.83;;;1.33;;
75283;SDS011;63877;48.702;44.594;2022-10-16T08:53:30;3.13;;;1.95;;
75283;SDS011;63877;48.702;44.594;2022-10-16T08:56:02;3.55;;;1.92;;
75283;SDS011;63877;48.702;44.594;2022-10-16T08:58:29;2.17;;;1.77;;
75283;SDS011;63877;48.702;44.594;2022-10-16T09:00:57;3.17;;;2.20;;
75283;SDS011;63877;48.702;44.594;2022-10-16T09:06:01;1.75;;;1.25;;
75283;SDS011;63877;48.702;44.594;2022-10-16T09:20:02;5.63;;;2.55;;
75283;SDS011;63877;48.702;44.594;2022-10-16T09:22:47;4.25;;;2.42;;
75283;SDS011;63877;48.702;44.594;2022-10-16T09:25:15;4.20;;;1.27;;
75283;SDS011;63877;48.702;44.594;2022-10-16T09:27:44;5.55;;;2.03;;
75283;SDS011;63877;48.702;44.594;2022-10-16T09:32:43;3.45;;;2.33;;
75283;SDS011;63877;48.702;44.594;2022-10-16T09:35:15;4.88;;;1.70;;
75283;SDS011;63877;48.702;44.594;2022-10-16T09:37:45;5.03;;;2.72;;
75283;SDS011;63877;48.702;44.594;2022-10-16T09:40:24;3.50;;;2.53;;
75283;SDS011;63877;48.702;44.594;2022-10-16T09:43:01;2.92;;;1.95;;
75283;SDS011;63877;48.702;44.594;2022-10-16T09:45:31;2.53;;;1.50;;
75283;SDS011;63877;48.702;44.594;2022-10-16T09:47:58;3.30;;;2.17;;
75283;SDS011;63877;48.702;44.594;2022-10-16T09:50:35;6.40;;;2.88;;
75283;SDS011;63877;48.702;44.594;2022-10-16T09:53:11;1.98;;;1.17;;
75283;SDS011;63877;48.702;44.594;2022-10-16T09:55:49;4.93;;;1.17;;
75283;SDS011;63877;48.702;44.594;2022-10-16T09:58:15;4.07;;;2.15;;
75283;SDS011;63877;48.702;44.594;2022-10-16T10:00:42;5.40;;;2.22;;
75283;SDS011;63877;48.702;44.594;2022-10-16T10:03:58;2.13;;;1.25;;
75283;SDS011;63877;48.702;44.594;2022-10-16T10:06:14;3.83;;;1.90;;
75283;SDS011;63877;48.702;44.594;2022-10-16T10:08:55;6.70;;;3.38;;
75283;SDS011;63877;48.702;44.594;2022-10-16T10:14:35;3.30;;;2.38;;
75283;SDS011;63877;48.702;44.594;2022-10-16T10:19:47;3.50;;;1.75;;
75283;SDS011;63877;48.702;44.594;2022-10-16T10:27:50;2.80;;;1.52;;
75283;SDS011;63877;48.702;44.594;2022-10-16T10:30:27;10.55;;;2.20;;
75283;SDS011;63877;48.702;44.594;2022-10-16T10:38:51;6.15;;;1.80;;
75283;SDS011;63877;48.702;44.594;2022-10-16T10:41:26;2.90;;;1.83;;
75283;SDS011;63877;48.702;44.594;2022-10-16T10:52:12;3.47;;;2.35;;
75283;SDS011;63877;48.702;44.594;2022-10-16T11:03:24;4.88;;;2.92;;
75283;SDS011;63877;48.702;44.594;2022-10-16T11:08:45;5.95;;;2.50;;
75283;SDS011;63877;48.702;44.594;2022-10-16T11:11:20;2.63;;;1.30;;
75283;SDS011;63877;48.702;44.594;2022-10-16T11:19:27;3.55;;;2.00;;
75283;SDS011;63877;48.702;44.594;2022-10-16T11:22:11;8.02;;;2.50;;
75283;SDS011;63877;48.702;44.594;2022-10-16T11:24:49;9.60;;;2.50;;
75283;SDS011;63877;48.702;44.594;2022-10-16T11:30:20;3.97;;;2.20;;
75283;SDS011;63877;48.702;44.594;2022-10-16T11:35:41;3.75;;;2.10;;
75283;SDS011;63877;48.702;44.594;2022-10-16T11:38:21;3.03;;;1.80;;
75283;SDS011;63877;48.702;44.594;2022-10-16T11:41:00;4.75;;;2.85;;
75283;SDS011;63877;48.702;44.594;2022-10-16T11:43:37;3.92;;;2.33;;
75283;SDS011;63877;48.702;44.594;2022-10-16T11:46:24;4.40;;;1.52;;
75283;SDS011;63877;48.702;44.594;2022-10-16T11:57:16;3.38;;;2.00;;
75283;SDS011;63877;48.702;44.594;2022-10-16T11:59:57;14.60;;;6.63;;
75283;SDS011;63877;48.702;44.594;2022-10-16T12:07:48;2.97;;;1.58;;
75283;SDS011;63877;48.702;44.594;2022-10-16T12:10:24;2.20;;;1.40;;
75283;SDS011;63877;48.702;44.594;2022-10-16T12:12:52;2.05;;;1.13;;
75283;SDS011;63877;48.702;44.594;2022-10-16T12:15:19;9.18;;;3.75;;
75283;SDS011;63877;48.702;44.594;2022-10-16T12:17:48;8.07;;;3.53;;
75283;SDS011;63877;48.702;44.594;2022-10-16T12:22:51;2.28;;;1.63;;
75283;SDS011;63877;48.702;44.594;2022-10-16T12:30:33;2.80;;;1.27;;
75283;SDS011;63877;48.702;44.594;2022-10-16T12:33:02;3.13;;;1.17;;
75283;SDS011;63877;48.702;44.594;2022-10-16T12:35:31;3.08;;;1.20;;
75283;SDS011;63877;48.702;44.594;2022-10-16T12:40:42;2.20;;;1.55;;
75283;SDS011;63877;48.702;44.594;2022-10-16T12:43:23;3.67;;;2.30;;
75283;SDS011;63877;48.702;44.594;2022-10-16T12:48:35;3.13;;;2.33;;
75283;SDS011;63877;48.702;44.594;2022-10-16T12:51:12;5.85;;;2.10;;
75283;SDS011;63877;48.702;44.594;2022-10-16T12:54:04;1.98;;;1.17;;
75283;SDS011;63877;48.702;44.594;2022-10-16T12:56:41;2.75;;;1.20;;
75283;SDS011;63877;48.702;44.594;2022-10-16T13:05:13;6.28;;;3.80;;
75283;SDS011;63877;48.702;44.594;2022-10-16T13:16:02;3.38;;;1.52;;
75283;SDS011;63877;48.702;44.594;2022-10-16T13:24:15;4.22;;;1.40;;
75283;SDS011;63877;48.702;44.594;2022-10-16T13:29:34;2.33;;;1.50;;
75283;SDS011;63877;48.702;44.594;2022-10-16T13:32:01;2.75;;;1.85;;
75283;SDS011;63877;48.702;44.594;2022-10-16T13:34:41;3.88;;;2.15;;
75283;SDS011;63877;48.702;44.594;2022-10-16T13:37:17;4.15;;;3.05;;
75283;SDS011;63877;48.702;44.594;2022-10-16T13:39:45;1.70;;;1.50;;
75283;SDS011;63877;48.702;44.594;2022-10-16T13:42:24;1.52;;;1.38;;
75283;SDS011;63877;48.702;44.594;2022-10-16T13:44:54;4.40;;;1.05;;
75283;SDS011;63877;48.702;44.594;2022-10-16T13:47:28;2.33;;;1.67;;
75283;SDS011;63877;48.702;44.594;2022-10-16T13:50:11;2.90;;;1.73;;
75283;SDS011;63877;48.702;44.594;2022-10-16T13:52:39;2.72;;;1.85;;
75283;SDS011;63877;48.702;44.594;2022-10-16T13:57:37;4.75;;;2.25;;
75283;SDS011;63877;48.702;44.594;2022-10-16T14:00:20;3.95;;;2.20;;
75283;SDS011;63877;48.702;44.594;2022-10-16T14:02:57;2.03;;;1.80;;
75283;SDS011;63877;48.702;44.594;2022-10-16T14:05:27;4.03;;;2.45;;
75283;SDS011;63877;48.702;44.594;2022-10-16T14:07:53;7.18;;;2.50;;
75283;SDS011;63877;48.702;44.594;2022-10-16T14:10:22;5.97;;;2.90;;
75283;SDS011;63877;48.702;44.594;2022-10-16T14:13:02;9.43;;;3.20;;
75283;SDS011;63877;48.702;44.594;2022-10-16T14:15:31;1.80;;;1.25;;
75283;SDS011;63877;48.702;44.594;2022-10-16T14:17:59;4.13;;;2.40;;
75283;SDS011;63877;48.702;44.594;2022-10-16T14:20:27;9.25;;;2.17;;
75283;SDS011;63877;48.702;44.594;2022-10-16T14:22:58;17.50;;;3.30;;
75283;SDS011;63877;48.702;44.594;2022-10-16T14:25:44;13.50;;;3.28;;
75283;SDS011;63877;48.702;44.594;2022-10-16T14:28:17;3.78;;;2.17;;
75283;SDS011;63877;48.702;44.594;2022-10-16T14:30:53;8.13;;;4.40;;
75283;SDS011;63877;48.702;44.594;2022-10-16T14:33:25;21.33;;;6.93;;
75283;SDS011;63877;48.702;44.594;2022-10-16T14:38:36;5.75;;;3.15;;
75283;SDS011;63877;48.702;44.594;2022-10-16T14:41:04;4.30;;;2.25;;
75283;SDS011;63877;48.702;44.594;2022-10-16T14:46:00;4.10;;;2.50;;
75283;SDS011;63877;48.702;44.594;2022-10-16T14:48:29;6.60;;;3.70;;
75283;SDS011;63877;48.702;44.594;2022-10-16T14:50:55;7.80;;;3.78;;
75283;SDS011;63877;48.702;44.594;2022-10-16T14:53:21;2.72;;;1.42;;
75283;SDS011;63877;48.702;44.594;2022-10-16T14:55:47;5.07;;;2.85;;
75283;SDS011;63877;48.702;44.594;2022-10-16T14:58:20;13.77;;;5.45;;
75283;SDS011;63877;48.702;44.594;2022-10-16T15:00:48;12.90;;;5.55;;
75283;SDS011;63877;48.702;44.594;2022-10-16T15:03:14;9.25;;;6.15;;
75283;SDS011;63877;48.702;44.594;2022-10-16T15:05:41;8.00;;;4.82;;
75283;SDS011;63877;48.702;44.594;2022-10-16T15:08:06;8.65;;;4.78;;
75283;SDS011;63877;48.702;44.594;2022-10-16T15:10:35;12.68;;;4.75;;
75283;SDS011;63877;48.702;44.594;2022-10-16T15:13:05;26.73;;;4.30;;
75283;SDS011;63877;48.702;44.594;2022-10-16T15:15:37;12.43;;;5.07;;
75283;SDS011;63877;48.702;44.594;2022-10-16T15:20:34;2.15;;;1.95;;
75283;SDS011;63877;48.702;44.594;2022-10-16T15:23:02;5.13;;;2.83;;
75283;SDS011;63877;48.702;44.594;2022-10-16T15:25:44;5.50;;;3.90;;
75283;SDS011;63877;48.702;44.594;2022-10-16T15:28:12;7.35;;;4.35;;
75283;SDS011;63877;48.702;44.594;2022-10-16T15:30:39;5.03;;;4.20;;
75283;SDS011;63877;48.702;44.594;2022-10-16T15:33:10;11.55;;;5.60;;
75283;SDS011;63877;48.702;44.594;2022-10-16T15:35:41;8.95;;;3.55;;
75283;SDS011;63877;48.702;44.594;2022-10-16T15:38:09;9.52;;;6.50;;
75283;SDS011;63877;48.702;44.594;2022-10-16T15:40:38;11.60;;;5.35;;
75283;SDS011;63877;48.702;44.594;2022-10-16T15:43:03;26.80;;;6.80;;
75283;SDS011;63877;48.702;44.594;2022-10-16T15:45:29;10.68;;;5.88;;
75283;SDS011;63877;48.702;44.594;2022-10-16T15:47:55;17.67;;;9.32;;
75283;SDS011;63877;48.702;44.594;2022-10-16T15:50:21;8.52;;;5.85;;
75283;SDS011;63877;48.702;44.594;2022-10-16T15:52:47;13.45;;;7.15;;
75283;SDS011;63877;48.702;44.594;2022-10-16T15:55:15;11.65;;;8.52;;
75283;SDS011;63877;48.702;44.594;2022-10-16T15:57:41;16.98;;;8.02;;
75283;SDS011;63877;48.702;44.594;2022-10-16T16:00:12;13.95;;;8.20;;
75283;SDS011;63877;48.702;44.594;2022-10-16T16:02:40;11.73;;;6.72;;
75283;SDS011;63877;48.702;44.594;2022-10-16T16:05:07;19.00;;;5.30;;
75283;SDS011;63877;48.702;44.594;2022-10-16T16:07:35;7.07;;;4.97;;
75283;SDS011;63877;48.702;44.594;2022-10-16T16:10:02;12.88;;;6.50;;
75283;SDS011;63877;48.702;44.594;2022-10-16T16:12:30;10.05;;;4.95;;
75283;SDS011;63877;48.702;44.594;2022-10-16T16:14:56;10.27;;;6.70;;
75283;SDS011;63877;48.702;44.594;2022-10-16T16:17:22;12.88;;;6.30;;
75283;SDS011;63877;48.702;44.594;2022-10-16T16:19:49;10.85;;;5.70;;
75283;SDS011;63877;48.702;44.594;2022-10-16T16:22:16;9.57;;;7.55;;
75283;SDS011;63877;48.702;44.594;2022-10-16T16:24:42;6.80;;;4.50;;
75283;SDS011;63877;48.702;44.594;2022-10-16T16:27:08;10.35;;;5.40;;
75283;SDS011;63877;48.702;44.594;2022-10-16T16:29:34;7.72;;;5.97;;
75283;SDS011;63877;48.702;44.594;2022-10-16T16:32:00;11.43;;;7.28;;
75283;SDS011;63877;48.702;44.594;2022-10-16T16:34:26;21.23;;;5.38;;
75283;SDS011;63877;48.702;44.594;2022-10-16T16:36:54;5.30;;;3.42;;
75283;SDS011;63877;48.702;44.594;2022-10-16T16:39:20;7.97;;;5.72;;
75283;SDS011;63877;48.702;44.594;2022-10-16T16:41:47;8.80;;;3.97;;
75283;SDS011;63877;48.702;44.594;2022-10-16T16:44:13;6.57;;;4.95;;
75283;SDS011;63877;48.702;44.594;2022-10-16T16:46:40;9.00;;;2.55;;
75283;SDS011;63877;48.702;44.594;2022-10-16T16:49:09;10.95;;;5.63;;
75283;SDS011;63877;48.702;44.594;2022-10-16T16:51:36;5.40;;;3.72;;
75283;SDS011;63877;48.702;44.594;2022-10-16T16:54:03;5.28;;;4.88;;
75283;SDS011;63877;48.702;44.594;2022-10-16T16:56:30;3.70;;;2.63;;
75283;SDS011;63877;48.702;44.594;2022-10-16T16:58:56;3.65;;;2.72;;
75283;SDS011;63877;48.702;44.594;2022-10-16T17:01:23;7.82;;;4.22;;
75283;SDS011;63877;48.702;44.594;2022-10-16T17:03:51;5.63;;;3.75;;
75283;SDS011;63877;48.702;44.594;2022-10-16T17:06:19;6.43;;;4.13;;
75283;SDS011;63877;48.702;44.594;2022-10-16T17:08:47;5.35;;;3.60;;
75283;SDS011;63877;48.702;44.594;2022-10-16T17:11:14;4.97;;;4.55;;
75283;SDS011;63877;48.702;44.594;2022-10-16T17:13:43;3.65;;;3.28;;
75283;SDS011;63877;48.702;44.594;2022-10-16T17:16:09;12.95;;;4.97;;